createdAt,value
2023-03-06T00:01:29.476Z,13.30
2023-03-06T00:03:59.684Z,13.30
2023-03-06T00:06:28.319Z,13.30
2023-03-06T00:08:56.946Z,13.30
2023-03-06T00:11:25.607Z,13.30
2023-03-06T00:13:54.259Z,13.30
2023-03-06T00:16:23.220Z,13.30
2023-03-06T00:18:52.129Z,13.30
2023-03-06T00:21:22.211Z,13.30
2023-03-06T00:23:50.987Z,13.20
2023-03-06T00:26:19.648Z,13.20
2023-03-06T00:28:48.705Z,13.20
2023-03-06T00:31:18.765Z,13.20
2023-03-06T00:33:47.531Z,13.20
2023-03-06T00:36:16.154Z,13.20
2023-03-06T00:38:46.301Z,13.20
2023-03-06T00:41:15.131Z,13.20
2023-03-06T00:43:43.808Z,13.20
2023-03-06T00:46:12.750Z,13.20
2023-03-06T00:48:41.839Z,13.20
2023-03-06T00:51:13.459Z,13.20
2023-03-06T00:53:42.521Z,13.20
2023-03-06T00:56:12.524Z,13.20
2023-03-06T00:58:41.294Z,13.20
2023-03-06T01:01:10.402Z,13.20
2023-03-06T01:03:39.516Z,13.20
2023-03-06T01:06:08.701Z,13.20
2023-03-06T01:08:37.470Z,13.20
2023-03-06T01:11:06.801Z,13.20
2023-03-06T01:13:37.180Z,13.20
2023-03-06T01:16:12.158Z,13.20
2023-03-06T01:18:41.412Z,13.20
2023-03-06T01:21:10.571Z,13.20
2023-03-06T01:23:39.863Z,13.20
2023-03-06T01:26:09.351Z,13.20
2023-03-06T01:28:40.691Z,13.20
2023-03-06T01:31:10.526Z,13.20
2023-03-06T01:33:39.928Z,13.20
2023-03-06T01:36:12.632Z,13.20
2023-03-06T01:38:41.423Z,13.20
2023-03-06T01:41:15.613Z,13.20
2023-03-06T01:43:47.544Z,13.20
2023-03-06T01:46:35.391Z,13.20
2023-03-06T01:49:10.768Z,13.20
2023-03-06T01:51:42.668Z,13.20
2023-03-06T01:54:16.765Z,13.20
2023-03-06T01:56:48.067Z,13.20
2023-03-06T01:59:18.487Z,13.20
2023-03-06T02:01:47.989Z,13.20
2023-03-06T02:04:17.914Z,13.20
2023-03-06T02:06:46.790Z,13.20
2023-03-06T02:09:16.681Z,13.20
2023-03-06T02:11:46.431Z,13.20
2023-03-06T02:14:18.893Z,13.20
2023-03-06T02:16:47.620Z,13.30
2023-03-06T02:19:30.194Z,13.30
2023-03-06T02:21:58.897Z,13.30
2023-03-06T02:24:38.341Z,13.30
2023-03-06T02:27:11.087Z,13.30
2023-03-06T02:29:39.946Z,13.30
2023-03-06T02:32:09.018Z,13.30
2023-03-06T02:34:56.305Z,13.30
2023-03-06T02:37:43.300Z,13.30
2023-03-06T02:40:14.343Z,13.30
2023-03-06T02:42:50.975Z,13.30
2023-03-06T02:45:25.506Z,13.30
2023-03-06T02:47:54.612Z,13.30
2023-03-06T02:50:23.236Z,13.30
2023-03-06T02:52:52.118Z,13.30
2023-03-06T02:55:20.826Z,13.30
2023-03-06T02:57:50.910Z,13.30
2023-03-06T03:00:21.218Z,13.30
2023-03-06T03:02:50.212Z,13.40
2023-03-06T03:05:18.996Z,13.40
2023-03-06T03:07:52.621Z,13.40
2023-03-06T03:10:22.108Z,13.40
2023-03-06T03:12:53.005Z,13.40
2023-03-06T03:15:22.543Z,13.40
2023-03-06T03:17:51.404Z,13.40
2023-03-06T03:20:22.706Z,13.40
2023-03-06T03:22:54.163Z,13.40
2023-03-06T03:25:24.246Z,13.40
2023-03-06T03:27:55.989Z,13.40
2023-03-06T03:30:25.258Z,13.40
2023-03-06T03:32:53.889Z,13.40
2023-03-06T03:35:22.645Z,13.50
2023-03-06T03:37:52.656Z,13.50
2023-03-06T03:40:21.518Z,13.50
2023-03-06T03:42:52.172Z,13.40
2023-03-06T03:45:23.069Z,13.50
2023-03-06T03:47:51.729Z,13.50
2023-03-06T03:50:21.178Z,13.50
2023-03-06T03:52:49.861Z,13.50
2023-03-06T03:55:18.839Z,13.50
2023-03-06T03:57:47.551Z,13.50
2023-03-06T04:00:18.026Z,13.50
2023-03-06T04:02:58.403Z,13.50
2023-03-06T04:05:35.062Z,13.50
2023-03-06T04:08:06.481Z,13.50
2023-03-06T04:10:38.775Z,13.50
2023-03-06T04:13:10.151Z,13.50
2023-03-06T04:15:42.608Z,13.50
2023-03-06T04:18:13.830Z,13.50
2023-03-06T04:20:42.508Z,13.50
2023-03-06T04:23:12.327Z,13.50
2023-03-06T04:25:41.518Z,13.50
2023-03-06T04:28:13.684Z,13.50
2023-03-06T04:30:42.595Z,13.50
2023-03-06T04:33:11.524Z,13.50
2023-03-06T04:35:41.737Z,13.50
2023-03-06T04:38:15.423Z,13.50
2023-03-06T04:40:45.001Z,13.50
2023-03-06T04:43:13.974Z,13.50
2023-03-06T04:45:42.787Z,13.50
2023-03-06T04:48:14.249Z,13.50
2023-03-06T04:50:44.391Z,13.50
2023-03-06T04:53:14.590Z,13.50
2023-03-06T04:55:43.182Z,13.50
2023-03-06T04:58:13.376Z,13.50
2023-03-06T05:00:42.023Z,13.50
2023-03-06T05:03:10.860Z,13.60
2023-03-06T05:05:39.518Z,13.60
2023-03-06T05:08:11.631Z,13.60
2023-03-06T05:10:40.239Z,13.60
2023-03-06T05:13:08.961Z,13.60
2023-03-06T05:15:37.730Z,13.60
2023-03-06T05:18:06.449Z,13.60
2023-03-06T05:20:35.136Z,13.60
2023-03-06T05:23:03.812Z,13.60
2023-03-06T05:25:33.835Z,13.60
2023-03-06T05:28:02.617Z,13.60
2023-03-06T05:30:31.368Z,13.60
2023-03-06T05:33:00.130Z,13.50
2023-03-06T05:35:28.758Z,13.50
2023-03-06T05:37:57.502Z,13.50
2023-03-06T05:40:26.254Z,13.50
2023-03-06T05:42:56.331Z,13.50
2023-03-06T05:45:25.041Z,13.50
2023-03-06T05:47:53.777Z,13.50
2023-03-06T05:50:22.556Z,13.50
2023-03-06T05:52:51.649Z,13.50
2023-03-06T05:55:21.731Z,13.50
2023-03-06T05:57:50.443Z,13.50
2023-03-06T06:00:22.858Z,13.50
2023-03-06T06:02:51.513Z,13.50
2023-03-06T06:05:20.323Z,13.40
2023-03-06T06:07:48.938Z,13.40
2023-03-06T06:10:17.745Z,13.40
2023-03-06T06:12:46.297Z,13.40
2023-03-06T06:15:16.044Z,13.40
2023-03-06T06:17:46.098Z,13.40
2023-03-06T06:20:17.345Z,13.40
2023-03-06T06:22:46.079Z,13.40
2023-03-06T06:25:15.352Z,13.40
2023-03-06T06:27:44.002Z,13.40
2023-03-06T06:30:14.374Z,13.40
2023-03-06T06:32:43.133Z,13.40
2023-03-06T06:35:13.335Z,13.40
2023-03-06T06:37:41.999Z,13.40
2023-03-06T06:40:12.389Z,13.40
2023-03-06T06:42:40.983Z,13.40
2023-03-06T06:45:11.978Z,13.40
2023-03-06T06:47:41.792Z,13.40
2023-03-06T06:50:15.231Z,13.40
2023-03-06T06:52:43.972Z,13.40
2023-03-06T06:55:13.799Z,13.40
2023-03-06T06:57:43.407Z,13.40
2023-03-06T07:00:16.887Z,13.40
2023-03-06T07:02:49.191Z,13.40
2023-03-06T07:05:21.758Z,13.40
2023-03-06T07:07:51.448Z,13.40
2023-03-06T07:10:21.185Z,13.40
2023-03-06T07:12:50.142Z,13.40
2023-03-06T07:15:19.816Z,13.40
2023-03-06T07:17:50.194Z,13.40
2023-03-06T07:20:21.652Z,13.40
2023-03-06T07:22:51.941Z,13.40
2023-03-06T07:25:22.442Z,13.40
2023-03-06T07:27:54.504Z,13.40
2023-03-06T07:30:24.356Z,13.40
2023-03-06T07:32:57.247Z,13.40
2023-03-06T07:35:27.980Z,13.40
2023-03-06T07:37:56.759Z,13.40
2023-03-06T07:40:25.936Z,13.40
2023-03-06T07:43:06.068Z,13.40
2023-03-06T07:45:43.297Z,13.40
2023-03-06T07:48:11.937Z,13.40
2023-03-06T07:50:43.363Z,13.40
2023-03-06T07:53:12.028Z,13.40
2023-03-06T07:55:42.496Z,13.40
2023-03-06T07:58:11.124Z,13.40
2023-03-06T08:00:39.808Z,13.40
2023-03-06T08:03:27.150Z,13.40
2023-03-06T08:06:08.012Z,13.40
2023-03-06T08:08:36.835Z,13.40
2023-03-06T08:11:05.734Z,13.40
2023-03-06T08:13:34.508Z,13.50
2023-03-06T08:16:03.477Z,13.50
2023-03-06T08:18:34.912Z,13.50
2023-03-06T08:21:08.058Z,13.50
2023-03-06T08:23:37.091Z,13.60
2023-03-06T08:26:08.968Z,13.60
2023-03-06T08:28:37.829Z,13.60
2023-03-06T08:31:13.760Z,13.70
2023-03-06T08:33:42.914Z,13.70
2023-03-06T08:36:13.183Z,13.70
2023-03-06T08:38:41.925Z,13.70
2023-03-06T08:41:10.752Z,13.70
2023-03-06T08:43:41.886Z,13.70
2023-03-06T08:46:12.240Z,13.70
2023-03-06T08:48:41.312Z,13.80
2023-03-06T08:51:13.163Z,13.80
2023-03-06T08:53:43.798Z,13.80
2023-03-06T08:56:17.951Z,13.80
2023-03-06T08:58:46.756Z,13.80
2023-03-06T09:01:17.279Z,13.80
2023-03-06T09:03:46.725Z,13.80
2023-03-06T09:06:17.824Z,13.80
2023-03-06T09:08:46.476Z,13.80
2023-03-06T09:11:17.152Z,13.80
2023-03-06T09:13:45.920Z,13.80
2023-03-06T09:16:14.813Z,13.80
2023-03-06T09:18:43.619Z,13.70
2023-03-06T09:21:12.615Z,13.70
2023-03-06T09:23:42.641Z,13.70
2023-03-06T09:26:13.277Z,13.70
2023-03-06T09:28:42.599Z,13.70
2023-03-06T09:31:12.615Z,13.70
2023-03-06T09:33:41.405Z,13.70
2023-03-06T09:36:12.483Z,13.70
2023-03-06T09:38:42.549Z,13.70
2023-03-06T09:41:25.249Z,13.70
2023-03-06T09:43:57.727Z,13.70
2023-03-06T09:46:32.497Z,13.70
2023-03-06T09:49:47.368Z,13.70
2023-03-06T09:52:32.352Z,13.70
2023-03-06T09:55:15.024Z,13.70
2023-03-06T09:57:52.358Z,13.70
2023-03-06T10:00:26.147Z,13.70
2023-03-06T10:03:02.471Z,13.70
2023-03-06T10:05:41.631Z,13.70
2023-03-06T10:08:24.653Z,13.70
2023-03-06T10:11:03.753Z,13.70
2023-03-06T10:13:41.050Z,13.70
2023-03-06T10:16:27.127Z,13.70
2023-03-06T10:18:56.760Z,13.80
2023-03-06T10:21:44.767Z,13.80
2023-03-06T10:24:40.246Z,13.70
2023-03-06T10:27:23.537Z,13.80
2023-03-06T10:30:06.452Z,13.80
2023-03-06T10:32:48.588Z,13.80
2023-03-06T10:35:21.240Z,13.80
2023-03-06T10:37:50.460Z,13.80
2023-03-06T10:40:23.964Z,13.80
2023-03-06T10:43:05.081Z,13.80
2023-03-06T10:45:50.253Z,13.80
2023-03-06T10:48:25.003Z,13.80
2023-03-06T10:50:55.017Z,13.80
2023-03-06T10:53:29.042Z,13.80
2023-03-06T10:55:59.843Z,13.80
2023-03-06T10:58:32.676Z,13.80
2023-03-06T11:01:09.265Z,13.80
2023-03-06T11:03:38.829Z,13.80
2023-03-06T11:06:13.072Z,13.80
2023-03-06T11:08:44.472Z,13.80
2023-03-06T11:11:22.372Z,13.90
2023-03-06T11:14:00.550Z,13.90
2023-03-06T11:16:30.629Z,13.90
2023-03-06T11:19:03.969Z,13.90
2023-03-06T11:21:34.699Z,13.90
2023-03-06T11:24:07.596Z,13.90
2023-03-06T11:26:44.215Z,13.90
2023-03-06T11:29:40.651Z,14.00
2023-03-06T11:32:16.581Z,14.00
2023-03-06T11:34:50.884Z,14.00
2023-03-06T11:37:32.284Z,14.00
2023-03-06T11:40:13.070Z,14.00
2023-03-06T11:42:46.924Z,14.10
2023-03-06T11:45:33.685Z,14.10
2023-03-06T11:48:20.520Z,14.10
2023-03-06T11:50:52.685Z,14.10
2023-03-06T11:53:22.697Z,14.10
2023-03-06T11:56:01.387Z,14.10
2023-03-06T11:59:02.306Z,14.10
2023-03-06T12:01:37.449Z,14.10
2023-03-06T12:04:30.748Z,14.10
2023-03-06T12:07:12.133Z,14.10
2023-03-06T12:09:47.811Z,14.10
2023-03-06T12:12:35.060Z,14.20
2023-03-06T12:15:35.278Z,14.10
2023-03-06T12:18:40.048Z,14.10
2023-03-06T12:21:17.939Z,14.10
2023-03-06T12:24:21.350Z,14.10
2023-03-06T12:27:02.661Z,14.10
2023-03-06T12:29:53.928Z,14.10
2023-03-06T12:32:39.564Z,14.10
2023-03-06T12:35:36.370Z,14.10
2023-03-06T12:38:32.475Z,14.10
2023-03-06T12:41:16.889Z,14.10
2023-03-06T12:44:21.148Z,14.10
2023-03-06T12:46:54.770Z,14.10
2023-03-06T12:49:32.354Z,14.10
2023-03-06T12:52:06.538Z,14.00
2023-03-06T12:54:40.127Z,14.00
2023-03-06T12:57:12.487Z,14.00
2023-03-06T12:59:47.239Z,14.10
2023-03-06T13:02:50.264Z,14.10
2023-03-06T13:06:14.220Z,14.10
2023-03-06T13:09:25.160Z,14.10
2023-03-06T13:12:24.874Z,14.10
2023-03-06T13:14:59.769Z,14.10
2023-03-06T13:17:40.453Z,14.10
2023-03-06T13:20:38.887Z,14.10
2023-03-06T13:23:46.385Z,14.10
2023-03-06T13:27:09.559Z,14.10
2023-03-06T13:30:22.274Z,14.10
2023-03-06T13:32:53.882Z,14.10
2023-03-06T13:35:53.951Z,14.20
2023-03-06T13:39:04.946Z,14.20
2023-03-06T13:41:54.595Z,14.20
2023-03-06T13:44:45.983Z,14.20
2023-03-06T13:48:05.764Z,14.20
2023-03-06T13:50:41.495Z,14.20
2023-03-06T13:53:42.330Z,14.20
2023-03-06T13:56:32.131Z,14.20
2023-03-06T13:59:24.958Z,14.20
2023-03-06T14:02:04.459Z,14.20
2023-03-06T14:04:45.998Z,14.20
2023-03-06T14:07:30.246Z,14.20
2023-03-06T14:10:12.215Z,14.20
2023-03-06T14:12:45.611Z,14.20
2023-03-06T14:15:20.839Z,14.20
2023-03-06T14:17:58.433Z,14.20
2023-03-06T14:20:35.529Z,14.20
2023-03-06T14:23:28.868Z,14.20
2023-03-06T14:26:05.708Z,14.20
2023-03-06T14:28:36.455Z,14.20
2023-03-06T14:31:07.594Z,14.20
2023-03-06T14:33:45.529Z,14.20
2023-03-06T14:36:17.501Z,14.20
2023-03-06T14:38:50.463Z,14.20
2023-03-06T14:41:28.098Z,14.20
2023-03-06T14:44:19.724Z,14.20
2023-03-06T14:46:51.612Z,14.20
2023-03-06T14:49:23.114Z,14.20
2023-03-06T14:51:54.668Z,14.10
2023-03-06T14:54:27.898Z,14.20
2023-03-06T14:57:01.546Z,14.20
2023-03-06T14:59:34.273Z,14.20
2023-03-06T15:02:08.712Z,14.20
2023-03-06T15:04:42.446Z,14.20
2023-03-06T15:07:14.889Z,14.20
2023-03-06T15:09:47.236Z,14.10
2023-03-06T15:12:36.427Z,14.10
2023-03-06T15:15:26.062Z,14.10
2023-03-06T15:17:56.183Z,14.20
2023-03-06T15:20:45.027Z,14.20
2023-03-06T15:23:24.101Z,14.10
2023-03-06T15:25:56.492Z,14.10
2023-03-06T15:28:33.834Z,14.10
2023-03-06T15:31:22.104Z,14.10
2023-03-06T15:34:24.433Z,14.10
2023-03-06T15:36:56.335Z,14.10
2023-03-06T15:39:37.036Z,14.10
2023-03-06T15:42:19.160Z,14.10
2023-03-06T15:44:54.059Z,14.10
2023-03-06T15:47:24.478Z,14.10
2023-03-06T15:49:54.533Z,14.10
2023-03-06T15:52:24.622Z,14.10
2023-03-06T15:54:53.322Z,14.10
2023-03-06T15:57:26.576Z,14.00
2023-03-06T15:59:56.209Z,14.00
2023-03-06T16:02:25.614Z,14.00
2023-03-06T16:04:55.694Z,14.00
2023-03-06T16:07:24.328Z,14.00
2023-03-06T16:09:52.917Z,14.00
2023-03-06T16:12:23.252Z,14.00
2023-03-06T16:14:51.939Z,14.00
2023-03-06T16:17:20.539Z,14.00
2023-03-06T16:19:49.127Z,14.00
2023-03-06T16:22:19.134Z,14.00
2023-03-06T16:24:47.955Z,14.00
2023-03-06T16:27:19.903Z,14.00
2023-03-06T16:29:49.821Z,14.00
2023-03-06T16:32:18.655Z,14.00
2023-03-06T16:34:47.265Z,14.00
2023-03-06T16:37:15.911Z,14.00
2023-03-06T16:39:45.902Z,13.90
2023-03-06T16:42:17.094Z,13.90
2023-03-06T16:44:45.723Z,13.90
2023-03-06T16:47:14.302Z,13.90
2023-03-06T16:49:42.907Z,13.90
2023-03-06T16:52:12.667Z,13.90
2023-03-06T16:54:43.576Z,13.90
2023-03-06T16:57:16.379Z,13.90
2023-03-06T16:59:45.154Z,13.90
2023-03-06T17:02:14.180Z,13.90
2023-03-06T17:04:42.794Z,13.90
2023-03-06T17:07:11.389Z,13.90
2023-03-06T17:09:41.074Z,13.80
2023-03-06T17:12:10.663Z,13.90
2023-03-06T17:14:40.746Z,13.80
2023-03-06T17:17:09.465Z,13.80
2023-03-06T17:19:38.539Z,13.80
2023-03-06T17:22:07.247Z,13.80
2023-03-06T17:24:37.356Z,13.80
2023-03-06T17:27:06.195Z,13.80
2023-03-06T17:29:34.835Z,13.80
2023-03-06T17:32:05.049Z,13.80
2023-03-06T17:34:33.732Z,13.80
2023-03-06T17:37:02.483Z,13.80
2023-03-06T17:39:34.022Z,13.80
2023-03-06T17:42:03.382Z,13.80
2023-03-06T17:44:32.194Z,13.80
2023-03-06T17:47:00.951Z,13.80
2023-03-06T17:49:31.208Z,13.80
2023-03-06T17:52:02.807Z,13.80
2023-03-06T17:54:33.112Z,13.80
2023-03-06T17:57:03.691Z,13.80
2023-03-06T17:59:34.958Z,13.80
2023-03-06T18:02:06.529Z,13.70
2023-03-06T18:04:36.831Z,13.70
2023-03-06T18:07:05.865Z,13.80
2023-03-06T18:09:35.002Z,13.70
2023-03-06T18:12:03.792Z,13.70
2023-03-06T18:14:32.521Z,13.70
2023-03-06T18:17:01.120Z,13.70
2023-03-06T18:19:29.986Z,13.70
2023-03-06T18:22:00.589Z,13.70
2023-03-06T18:24:29.261Z,13.80
2023-03-06T18:26:58.423Z,13.70
2023-03-06T18:29:27.054Z,13.70
2023-03-06T18:31:56.917Z,13.70
2023-03-06T18:34:25.689Z,13.70
2023-03-06T18:36:54.600Z,13.70
2023-03-06T18:39:24.766Z,13.70
2023-03-06T18:41:53.556Z,13.70
2023-03-06T18:44:22.319Z,13.70
2023-03-06T18:46:50.894Z,13.70
2023-03-06T18:49:19.544Z,13.70
2023-03-06T18:51:48.385Z,13.70
2023-03-06T18:54:17.091Z,13.70
2023-03-06T18:56:47.085Z,13.70
2023-03-06T18:59:18.952Z,13.70
2023-03-06T19:01:48.913Z,13.70
2023-03-06T19:04:17.786Z,13.70
2023-03-06T19:06:46.507Z,13.70
2023-03-06T19:09:15.117Z,13.60
2023-03-06T19:11:46.909Z,13.60
2023-03-06T19:14:17.268Z,13.60
2023-03-06T19:16:46.285Z,13.60
2023-03-06T19:19:15.608Z,13.60
2023-03-06T19:21:44.263Z,13.60
2023-03-06T19:24:14.207Z,13.60
2023-03-06T19:26:43.217Z,13.60
2023-03-06T19:29:11.879Z,13.60
2023-03-06T19:31:43.214Z,13.60
2023-03-06T19:34:12.099Z,13.60
2023-03-06T19:36:40.868Z,13.60
2023-03-06T19:39:09.799Z,13.60
2023-03-06T19:41:38.553Z,13.60
2023-03-06T19:44:07.203Z,13.60
2023-03-06T19:46:36.329Z,13.60
2023-03-06T19:49:11.743Z,13.60
2023-03-06T19:51:40.619Z,13.60
2023-03-06T19:54:10.819Z,13.60
2023-03-06T19:56:39.548Z,13.60
2023-03-06T19:59:08.356Z,13.60
2023-03-06T20:01:38.094Z,13.60
2023-03-06T20:04:08.615Z,13.60
2023-03-06T20:06:38.829Z,13.50
2023-03-06T20:09:09.876Z,13.50
2023-03-06T20:11:38.671Z,13.50
2023-03-06T20:14:10.091Z,13.50
2023-03-06T20:16:38.897Z,13.50
2023-03-06T20:19:09.102Z,13.50
2023-03-06T20:21:38.843Z,13.50
2023-03-06T20:24:08.424Z,13.50
2023-03-06T20:26:38.579Z,13.50
2023-03-06T20:29:07.457Z,13.50
2023-03-06T20:31:36.623Z,13.50
2023-03-06T20:34:06.040Z,13.50
2023-03-06T20:36:38.051Z,13.50
2023-03-06T20:39:10.833Z,13.50
2023-03-06T20:41:40.124Z,13.50
2023-03-06T20:44:13.616Z,13.50
2023-03-06T20:46:42.391Z,13.50
2023-03-06T20:49:12.779Z,13.50
2023-03-06T20:51:43.201Z,13.50
2023-03-06T20:54:14.430Z,13.50
2023-03-06T20:56:47.726Z,13.50
2023-03-06T20:59:16.840Z,13.50
2023-03-06T21:01:48.047Z,13.50
2023-03-06T21:04:17.376Z,13.50
2023-03-06T21:06:48.062Z,13.50
2023-03-06T21:09:18.305Z,13.50
2023-03-06T21:11:47.672Z,13.50
2023-03-06T21:14:16.903Z,13.50
2023-03-06T21:16:45.974Z,13.50
2023-03-06T21:19:14.767Z,13.50
2023-03-06T21:21:43.364Z,13.50
2023-03-06T21:24:13.385Z,13.50
2023-03-06T21:26:41.983Z,13.50
2023-03-06T21:29:10.670Z,13.50
2023-03-06T21:31:40.331Z,13.50
2023-03-06T21:34:10.625Z,13.50
2023-03-06T21:36:39.275Z,13.50
2023-03-06T21:39:07.952Z,13.50
2023-03-06T21:41:38.299Z,13.50
2023-03-06T21:44:07.796Z,13.50
2023-03-06T21:46:36.525Z,13.50
2023-03-06T21:49:06.287Z,13.50
2023-03-06T21:51:35.280Z,13.50
2023-03-06T21:54:04.515Z,13.50
2023-03-06T21:56:33.632Z,13.50
2023-03-06T21:59:03.809Z,13.50
2023-03-06T22:01:32.611Z,13.40
2023-03-06T22:04:01.331Z,13.50
2023-03-06T22:06:31.966Z,13.50
2023-03-06T22:09:01.820Z,13.50
2023-03-06T22:11:34.202Z,13.50
2023-03-06T22:14:05.082Z,13.50
2023-03-06T22:16:34.292Z,13.50
2023-03-06T22:19:02.998Z,13.50
2023-03-06T22:21:31.682Z,13.50
2023-03-06T22:24:01.814Z,13.50
2023-03-06T22:26:31.377Z,13.50
2023-03-06T22:28:59.977Z,13.50
2023-03-06T22:31:30.416Z,13.50
2023-03-06T22:34:01.655Z,13.50
2023-03-06T22:36:32.174Z,13.50
2023-03-06T22:39:03.308Z,13.50
2023-03-06T22:41:32.520Z,13.40
2023-03-06T22:44:03.103Z,13.50
2023-03-06T22:46:34.329Z,13.50
2023-03-06T22:49:03.813Z,13.50
2023-03-06T22:51:32.600Z,13.50
2023-03-06T22:54:01.233Z,13.50
2023-03-06T22:56:29.881Z,13.50
2023-03-06T22:58:58.805Z,13.40
2023-03-06T23:01:30.210Z,13.40
2023-03-06T23:04:02.821Z,13.40
2023-03-06T23:06:36.028Z,13.40
2023-03-06T23:09:07.388Z,13.40
2023-03-06T23:11:54.355Z,13.40
2023-03-06T23:14:41.468Z,13.40
2023-03-06T23:17:29.316Z,13.40
2023-03-06T23:20:18.183Z,13.40
2023-03-06T23:23:05.305Z,13.40
2023-03-06T23:25:42.969Z,13.40
2023-03-06T23:28:12.074Z,13.40
2023-03-06T23:30:40.922Z,13.40
2023-03-06T23:33:10.275Z,13.40
2023-03-06T23:35:40.711Z,13.40
2023-03-06T23:38:09.398Z,13.40
2023-03-06T23:40:40.056Z,13.40
2023-03-06T23:43:08.996Z,13.40
2023-03-06T23:45:37.613Z,13.40
2023-03-06T23:48:08.015Z,13.40
2023-03-06T23:50:36.614Z,13.40
2023-03-06T23:53:06.596Z,13.40
2023-03-06T23:55:35.395Z,13.40
2023-03-06T23:58:03.970Z,13.40
